Time;durP1;ratioP1;P1;durP2;ratioP2;P2;SDS_P1;SDS_P2;PMS_P1;PMS_P2;Temp;Humidity;BMP_temperature;BMP_pressure;BME280_temperature;BME280_humidity;BME280_pressure;Samples;Min_cycle;Max_cycle;Signal;HPM_P1;HPM_P2
2023/12/17 00:00:20;;;;;;;15.70;15.10;;;;;;;-141.02;100.00;39556.69;5112278;28;20201;-66
2023/12/17 00:02:47;;;;;;;15.20;14.70;;;;;;;-141.02;100.00;39503.00;5111959;28;20189;-67
2023/12/17 00:05:15;;;;;;;15.63;15.13;;;;;;;-141.02;100.00;39547.09;5112518;28;20203;-66
2023/12/17 00:07:42;;;;;;;16.03;15.50;;;;;;;-141.02;100.00;39554.78;5114187;28;20197;-67
2023/12/17 00:10:09;;;;;;;15.50;15.00;;;;;;;-141.02;100.00;39550.94;5115831;28;20598;-67
2023/12/17 00:12:36;;;;;;;15.00;14.50;;;;;;;-141.02;100.00;39547.09;5115963;28;20193;-67
2023/12/17 00:15:05;;;;;;;15.33;14.83;;;;;;;-141.02;100.00;39543.25;5115846;28;20194;-68
2023/12/17 00:17:32;;;;;;;14.47;13.97;;;;;;;-141.02;100.00;39554.78;5115957;28;20577;-67
2023/12/17 00:19:59;;;;;;;14.20;13.70;;;;;;;-141.02;100.00;39531.75;5115851;28;20275;-67
2023/12/17 00:22:26;;;;;;;13.60;13.20;;;;;;;-141.02;100.00;39537.50;5115494;28;20288;-67
2023/12/17 00:24:53;;;;;;;12.63;12.23;;;;;;;-141.02;100.00;39562.44;5115738;28;20279;-67
2023/12/17 00:27:20;;;;;;;13.53;13.13;;;;;;;-141.02;100.00;39539.44;5115605;28;20194;-67
2023/12/17 00:29:47;;;;;;;13.20;12.80;;;;;;;-141.02;100.00;39550.94;5115610;28;20315;-67
2023/12/17 00:32:15;;;;;;;11.87;11.50;;;;;;;-141.02;100.00;39566.28;5115818;28;20189;-67
2023/12/17 00:34:42;;;;;;;11.93;11.53;;;;;;;-141.02;100.00;39537.50;5115264;28;20283;-67
2023/12/17 00:37:09;;;;;;;11.93;11.53;;;;;;;-141.02;100.00;39537.50;5115172;28;20236;-67
2023/12/17 00:39:36;;;;;;;11.83;11.43;;;;;;;-141.02;100.00;39527.91;5115150;28;20631;-67
2023/12/17 00:42:03;;;;;;;11.20;10.90;;;;;;;-141.02;100.00;39547.09;5115139;28;20672;-67
2023/12/17 00:44:30;;;;;;;11.13;10.83;;;;;;;-141.02;100.00;39527.91;5115351;28;20277;-67
2023/12/17 00:46:57;;;;;;;11.90;11.60;;;;;;;-141.02;100.00;39508.75;5115356;28;20276;-67
2023/12/17 00:49:25;;;;;;;12.60;12.20;;;;;;;-141.02;100.00;39533.66;5114895;28;20224;-67
2023/12/17 00:51:52;;;;;;;13.00;12.60;;;;;;;-141.02;100.00;39539.44;5114866;28;20783;-67
2023/12/17 00:54:19;;;;;;;12.73;12.33;;;;;;;-141.02;100.00;39535.59;5115455;28;20199;-67
2023/12/17 00:56:46;;;;;;;12.17;11.77;;;;;;;-141.02;100.00;39558.59;5114742;28;20695;-67
2023/12/17 00:59:13;;;;;;;11.57;11.27;;;;;;;-141.02;100.00;39562.44;5115088;28;20272;-67
2023/12/17 01:01:40;;;;;;;11.40;11.10;;;;;;;-141.02;100.00;39575.88;5114788;28;20193;-67
2023/12/17 01:04:07;;;;;;;11.30;11.00;;;;;;;-141.02;100.00;39547.09;5114956;28;20284;-66
2023/12/17 01:06:35;;;;;;;13.20;12.80;;;;;;;-141.02;100.00;39545.19;5115036;28;20690;-66
2023/12/17 01:09:02;;;;;;;12.60;12.20;;;;;;;-141.02;100.00;39514.50;5114811;28;20231;-66
2023/12/17 01:11:29;;;;;;;12.50;12.10;;;;;;;-141.02;100.00;39554.78;5114978;28;20275;-67
2023/12/17 01:13:56;;;;;;;11.73;11.43;;;;;;;-141.02;100.00;39566.28;5114787;28;20219;-66
2023/12/17 01:16:23;;;;;;;11.77;11.47;;;;;;;-141.02;100.00;39568.19;5114750;28;20266;-67
2023/12/17 01:18:50;;;;;;;12.33;11.93;;;;;;;-141.02;100.00;39562.44;5113970;28;20615;-66
2023/12/17 01:21:17;;;;;;;10.93;10.63;;;;;;;-141.02;100.00;39550.94;5114274;28;20659;-67
2023/12/17 01:23:45;;;;;;;10.33;10.03;;;;;;;-141.02;100.00;39537.50;5114389;28;20189;-65
2023/12/17 01:26:19;;;;;;;10.23;9.93;;;;;;;-141.02;100.00;39579.69;5114493;28;20197;-67
2023/12/17 01:28:46;;;;;;;9.93;9.63;;;;;;;-141.02;100.00;39562.44;5114544;28;20213;-65
2023/12/17 01:31:13;;;;;;;9.73;9.43;;;;;;;-141.02;100.00;39547.09;5114470;28;20207;-68
2023/12/17 01:33:39;;;;;;;9.57;9.27;;;;;;;-141.02;100.00;39562.44;5114131;28;20229;-66
2023/12/17 01:36:07;;;;;;;10.63;10.33;;;;;;;-141.02;100.00;39531.75;5114091;28;20637;-66
2023/12/17 01:38:34;;;;;;;11.13;10.83;;;;;;;-141.02;100.00;39568.19;5114010;28;20193;-65
2023/12/17 01:41:03;;;;;;;12.20;11.80;;;;;;;-141.02;100.00;39508.75;5114389;28;20272;-66
2023/12/17 01:43:30;;;;;;;12.50;12.10;;;;;;;-141.02;100.00;39568.19;5114244;28;20193;-66
2023/12/17 01:45:57;;;;;;;12.67;12.27;;;;;;;-141.02;100.00;39552.84;5113869;28;20659;-65
2023/12/17 01:48:26;;;;;;;12.37;11.97;;;;;;;-141.02;100.00;39549.00;5114166;28;20189;-65
2023/12/17 01:50:53;;;;;;;12.83;12.43;;;;;;;-141.02;100.00;39550.94;5113708;28;20707;-66
2023/12/17 01:53:20;;;;;;;13.90;13.50;;;;;;;-141.02;100.00;39485.72;5113984;28;20195;-65
2023/12/17 01:55:49;;;;;;;13.47;13.07;;;;;;;-141.02;100.00;39516.41;5113467;28;20258;-65
2023/12/17 01:58:18;;;;;;;13.67;13.27;;;;;;;-141.02;100.00;39497.22;5113622;28;20228;-65
2023/12/17 02:00:45;;;;;;;13.93;13.53;;;;;;;-141.02;100.00;39497.22;5113749;28;20200;-65
2023/12/17 02:03:12;;;;;;;12.50;12.10;;;;;;;-141.02;100.00;39529.84;5113875;28;20560;-67
2023/12/17 02:05:39;;;;;;;12.83;12.43;;;;;;;-141.02;100.00;39483.81;5113789;28;20193;-66
2023/12/17 02:08:06;;;;;;;13.50;13.10;;;;;;;-141.02;100.00;39520.25;5113655;28;20192;-65
2023/12/17 02:10:33;;;;;;;12.43;12.03;;;;;;;-141.02;100.00;39512.56;5113639;28;20255;-65
2023/12/17 02:13:01;;;;;;;12.77;12.37;;;;;;;-141.02;100.00;39520.25;5113275;28;20673;-65
2023/12/17 02:15:29;;;;;;;12.60;12.20;;;;;;;-141.02;100.00;39516.41;5113299;28;20189;-65
2023/12/17 02:17:56;;;;;;;11.43;11.13;;;;;;;-141.02;100.00;39474.22;5113558;28;20215;-65
2023/12/17 02:20:23;;;;;;;14.80;14.30;;;;;;;-141.02;100.00;39485.72;5113479;28;20201;-64
2023/12/17 02:22:54;;;;;;;13.80;13.40;;;;;;;-141.02;100.00;39489.56;5113235;28;20193;-65
2023/12/17 02:25:24;;;;;;;13.60;13.20;;;;;;;-141.02;100.00;39466.53;5113442;28;20208;-65
2023/12/17 02:27:51;;;;;;;11.07;10.77;;;;;;;-141.02;100.00;39499.16;5113341;28;20205;-65
2023/12/17 02:30:18;;;;;;;12.73;12.33;;;;;;;-141.02;100.00;39495.31;5113297;28;20224;-65
2023/12/17 02:32:45;;;;;;;11.57;11.27;;;;;;;-141.02;100.00;39552.84;5113059;28;20204;-64
2023/12/17 02:35:12;;;;;;;12.27;11.87;;;;;;;-141.02;100.00;39497.22;5113017;28;20199;-64
2023/12/17 02:37:39;;;;;;;12.23;11.83;;;;;;;-141.02;100.00;39543.25;5113200;28;20193;-64
2023/12/17 02:40:07;;;;;;;12.40;12.00;;;;;;;-141.02;100.00;39510.66;5113459;28;20281;-64
2023/12/17 02:42:35;;;;;;;14.23;13.73;;;;;;;-141.02;100.00;39501.06;5112807;28;20284;-64
2023/12/17 02:45:02;;;;;;;14.40;13.90;;;;;;;-141.02;100.00;39512.56;5112838;28;20697;-65
2023/12/17 02:47:29;;;;;;;14.17;13.67;;;;;;;-141.02;100.00;39489.56;5113036;28;20197;-64
2023/12/17 02:49:56;;;;;;;13.37;12.97;;;;;;;-141.02;100.00;39491.47;5112651;28;20724;-64
2023/12/17 02:52:23;;;;;;;13.13;12.73;;;;;;;-141.02;100.00;39470.38;5112645;28;20288;-65
2023/12/17 02:54:50;;;;;;;13.47;13.07;;;;;;;-141.02;100.00;39447.38;5112857;28;20223;-65
2023/12/17 02:57:17;;;;;;;13.20;12.80;;;;;;;-141.02;100.00;39485.72;5112606;28;20229;-65
2023/12/17 02:59:45;;;;;;;12.97;12.57;;;;;;;-141.02;100.00;39483.81;5112810;28;20207;-65
2023/12/17 03:02:12;;;;;;;12.13;11.73;;;;;;;-141.02;100.00;39504.91;5112876;28;20242;-64
2023/12/17 03:04:39;;;;;;;12.33;11.93;;;;;;;-141.02;100.00;39508.75;5112565;28;20559;-65
2023/12/17 03:07:06;;;;;;;11.87;11.47;;;;;;;-141.02;100.00;39481.88;5112518;28;20685;-64
2023/12/17 03:09:33;;;;;;;11.57;11.27;;;;;;;-141.02;100.00;39474.22;5112985;28;20229;-65
2023/12/17 03:12:00;;;;;;;11.67;11.37;;;;;;;-141.02;100.00;39481.88;5112467;28;20566;-65
2023/12/17 03:14:26;;;;;;;11.17;10.87;;;;;;;-141.02;100.00;39489.56;5113041;28;20197;-64
2023/12/17 03:16:55;;;;;;;10.67;10.37;;;;;;;-141.02;100.00;39489.56;5112375;28;20685;-65
2023/12/17 03:19:22;;;;;;;11.40;11.10;;;;;;;-141.02;100.00;39481.88;5112664;28;20576;-65
2023/12/17 03:21:49;;;;;;;11.40;11.10;;;;;;;-141.02;100.00;39489.56;5112371;28;20193;-65
2023/12/17 03:24:16;;;;;;;11.10;10.80;;;;;;;-141.02;100.00;39489.56;5112557;28;20200;-65
2023/12/17 03:26:43;;;;;;;11.50;11.20;;;;;;;-141.02;100.00;39522.16;5112528;28;20199;-66
2023/12/17 03:29:10;;;;;;;11.20;10.90;;;;;;;-141.02;100.00;39514.50;5112175;28;20204;-65
2023/12/17 03:31:37;;;;;;;10.47;10.17;;;;;;;-141.02;100.00;39550.94;5112571;28;20195;-65
2023/12/17 03:34:05;;;;;;;10.90;10.60;;;;;;;-141.02;100.00;39535.59;5112179;28;20667;-64
2023/12/17 03:36:32;;;;;;;10.73;10.43;;;;;;;-141.02;100.00;39554.78;5112140;28;20766;-67
2023/12/17 03:38:59;;;;;;;10.33;10.03;;;;;;;-141.02;100.00;39531.75;5112718;28;20199;-67
2023/12/17 03:41:28;;;;;;;10.20;9.90;;;;;;;-141.02;100.00;39545.19;5112414;28;20196;-66
2023/12/17 03:43:56;;;;;;;9.27;9.07;;;;;;;-141.02;100.00;39547.09;5116552;28;20193;-65
2023/12/17 03:46:25;;;;;;;9.27;9.07;;;;;;;-141.02;100.00;39537.50;5116174;28;20189;-66
2023/12/17 03:48:53;;;;;;;8.37;8.17;;;;;;;-141.02;100.00;39572.03;5116732;28;20199;-65
2023/12/17 03:51:21;;;;;;;9.23;9.03;;;;;;;-141.02;100.00;39570.13;5116081;28;20228;-66
2023/12/17 03:53:48;;;;;;;9.10;8.90;;;;;;;-141.02;100.00;39627.66;5116054;28;20655;-68
2023/12/17 03:56:16;;;;;;;8.93;8.73;;;;;;;-141.02;100.00;39604.63;5115864;28;20229;-68
2023/12/17 03:58:43;;;;;;;8.80;8.60;;;;;;;-141.02;100.00;39552.84;5115978;28;20624;-66
2023/12/17 04:01:10;;;;;;;8.70;8.50;;;;;;;-141.02;100.00;39635.31;5116280;28;20250;-68
2023/12/17 04:03:38;;;;;;;8.00;7.80;;;;;;;-141.02;100.00;39612.31;5116471;28;20227;-67
2023/12/17 04:06:07;;;;;;;8.07;7.87;;;;;;;-141.02;100.00;39608.47;5116094;28;20601;-65
2023/12/17 04:08:36;;;;;;;8.60;8.40;;;;;;;-141.02;100.00;39635.31;5116129;28;20276;-68
2023/12/17 04:11:03;;;;;;;8.10;7.90;;;;;;;-141.02;100.00;39681.34;5116110;28;20225;-64
2023/12/17 04:13:29;;;;;;;8.20;8.00;;;;;;;-141.02;100.00;39692.84;5115992;28;20197;-67
2023/12/17 04:15:56;;;;;;;7.40;7.20;;;;;;;-141.02;100.00;39742.72;5115651;28;20193;-68
2023/12/17 04:18:23;;;;;;;7.37;7.17;;;;;;;-141.02;100.00;39765.75;5115955;28;20284;-66
2023/12/17 04:20:50;;;;;;;6.87;6.67;;;;;;;-141.02;100.00;39809.84;5115881;28;20197;-68
2023/12/17 04:23:17;;;;;;;7.00;6.80;;;;;;;-141.02;100.00;39827.13;5115520;28;20197;-68
2023/12/17 04:25:45;;;;;;;6.63;6.43;;;;;;;-141.02;100.00;39888.50;5115837;28;20554;-68
2023/12/17 04:28:12;;;;;;;6.67;6.47;;;;;;;-141.02;100.00;39886.56;5115398;28;20203;-68
2023/12/17 04:30:39;;;;;;;6.80;6.60;;;;;;;-141.02;100.00;39915.34;5115633;28;20224;-65
2023/12/17 04:33:06;;;;;;;6.60;6.40;;;;;;;-141.02;100.00;39965.22;5115365;28;20280;-67
2023/12/17 04:35:33;;;;;;;6.83;6.63;;;;;;;-141.02;100.00;40007.41;5115250;28;20198;-68
2023/12/17 04:38:00;;;;;;;5.43;5.33;;;;;;;-141.02;100.00;40013.16;5115599;28;20255;-67
2023/12/17 04:40:27;;;;;;;5.50;5.40;;;;;;;-141.02;100.00;40070.72;5115492;28;20197;-66
2023/12/17 04:42:55;;;;;;;5.40;5.30;;;;;;;-141.02;100.00;40151.28;5115537;28;20272;-64
2023/12/17 04:45:22;;;;;;;5.20;5.10;;;;;;;-141.02;100.00;40160.88;5115122;28;20732;-66
2023/12/17 04:47:49;;;;;;;5.17;5.07;;;;;;;-141.02;100.00;40210.75;5115339;28;20246;-65
2023/12/17 04:50:16;;;;;;;5.03;4.93;;;;;;;-141.02;100.00;40272.13;5115012;28;20609;-66
2023/12/17 04:52:43;;;;;;;4.90;4.80;;;;;;;-141.02;100.00;40258.69;5114894;28;20296;-66
2023/12/17 04:55:10;;;;;;;4.70;4.60;;;;;;;-141.02;100.00;40312.41;5113940;28;20236;-67
2023/12/17 04:57:37;;;;;;;6.10;6.00;;;;;;;-141.02;100.00;40333.50;5114988;28;20654;-67
2023/12/17 05:00:08;;;;;;;5.80;5.70;;;;;;;-141.02;100.00;40379.56;5115055;28;20280;-67
2023/12/17 05:02:35;;;;;;;6.03;5.93;;;;;;;-141.02;100.00;40402.56;5115128;28;20189;-67
2023/12/17 05:05:02;;;;;;;5.97;5.87;;;;;;;-141.02;100.00;40398.75;5115001;28;20272;-67
2023/12/17 05:07:28;;;;;;;6.03;5.93;;;;;;;-141.02;100.00;40414.09;5114747;28;20284;-65
2023/12/17 05:09:57;;;;;;;6.10;6.00;;;;;;;-141.02;100.00;40437.09;5114841;28;20197;-65
2023/12/17 05:12:24;;;;;;;6.77;6.57;;;;;;;-141.02;100.00;40475.47;5114885;28;20197;-68
2023/12/17 05:14:51;;;;;;;5.97;5.87;;;;;;;-141.02;100.00;40473.56;5114806;28;20201;-67
2023/12/17 05:17:19;;;;;;;6.47;6.30;;;;;;;-141.02;100.00;40486.97;5114766;28;20296;-66
2023/12/17 05:19:46;;;;;;;6.10;6.00;;;;;;;-141.02;100.00;40540.69;5114454;28;20200;-65
2023/12/17 05:22:13;;;;;;;6.50;6.33;;;;;;;-141.02;100.00;40552.22;5114568;28;20664;-66
2023/12/17 05:24:40;;;;;;;6.20;6.10;;;;;;;-141.02;100.00;40577.16;5115731;28;20201;-68
2023/12/17 05:27:07;;;;;;;5.73;5.63;;;;;;;-141.02;100.00;40586.75;5114274;28;20289;-66
2023/12/17 05:29:34;;;;;;;5.80;5.70;;;;;;;-141.02;100.00;40617.44;5114521;28;20276;-68
2023/12/17 05:32:01;;;;;;;6.10;6.00;;;;;;;-141.02;100.00;40678.84;5114393;28;20311;-68
2023/12/17 05:34:29;;;;;;;5.90;5.80;;;;;;;-141.02;100.00;40707.59;5114414;28;20227;-67
2023/12/17 05:36:56;;;;;;;5.90;5.80;;;;;;;-141.02;100.00;40790.09;5114119;28;20648;-67
2023/12/17 05:39:23;;;;;;;5.70;5.60;;;;;;;-141.02;100.00;40886.03;5113961;28;20750;-67
2023/12/17 05:41:50;;;;;;;5.63;5.53;;;;;;;-141.02;100.00;40966.63;5114268;28;20219;-67
2023/12/17 05:44:17;;;;;;;5.87;5.77;;;;;;;-141.02;100.00;41043.38;5114225;28;20652;-67
2023/12/17 05:46:44;;;;;;;9.87;9.57;;;;;;;-141.02;100.00;41062.56;5114147;28;20284;-68
2023/12/17 05:49:11;;;;;;;9.97;9.67;;;;;;;-141.02;100.00;41116.28;5114212;28;20203;-65
2023/12/17 05:51:42;;;;;;;7.20;7.00;;;;;;;-141.02;100.00;41185.34;5113758;28;20264;-67
2023/12/17 05:54:11;;;;;;;8.80;8.60;;;;;;;-141.02;100.00;41258.28;5113807;28;20559;-67
2023/12/17 05:56:42;;;;;;;8.30;8.10;;;;;;;-141.02;100.00;41400.28;5113623;28;20703;-67
2023/12/17 05:59:09;;;;;;;7.77;7.57;;;;;;;-141.02;100.00;41634.38;5113696;28;20667;-67
2023/12/17 06:01:36;;;;;;;7.53;7.33;;;;;;;-141.02;100.00;41711.16;5113968;28;20189;-68
2023/12/17 06:04:03;;;;;;;7.93;7.73;;;;;;;-141.02;100.00;41780.25;5113898;28;20624;-67
2023/12/17 06:06:30;;;;;;;7.43;7.23;;;;;;;-141.02;100.00;41899.22;5113575;28;20193;-67
2023/12/17 06:08:59;;;;;;;7.63;7.43;;;;;;;-141.02;100.00;42023.97;5113449;28;20674;-67
2023/12/17 06:11:26;;;;;;;6.90;6.70;;;;;;;-141.02;100.00;42070.03;5113631;28;20232;-68
2023/12/17 06:13:53;;;;;;;8.53;8.33;;;;;;;-141.02;100.00;42102.66;5113397;28;20280;-65
2023/12/17 06:16:19;;;;;;;6.73;6.53;;;;;;;-141.02;100.00;42121.88;5113456;28;20193;-67
2023/12/17 06:18:46;;;;;;;6.60;6.40;;;;;;;-141.02;100.00;42240.88;5113620;28;20193;-68
2023/12/17 06:21:22;;;;;;;7.00;6.80;;;;;;;-141.02;100.00;42263.91;5113497;28;20293;-67
2023/12/17 06:23:50;;;;;;;7.23;7.03;;;;;;;-141.02;100.00;42325.31;5113250;28;20647;-67
2023/12/17 06:26:19;;;;;;;7.00;6.80;;;;;;;-141.02;100.00;42450.09;5113476;28;20224;-66
2023/12/17 06:28:46;;;;;;;6.57;6.37;;;;;;;-141.02;100.00;42446.25;5113411;28;20615;-66
2023/12/17 06:31:13;;;;;;;6.97;6.77;;;;;;;-141.02;100.00;42795.63;5112981;28;20224;-67
2023/12/17 06:33:39;;;;;;;6.70;6.50;;;;;;;-141.02;100.00;43223.75;5113052;28;20576;-67
2023/12/17 06:36:07;;;;;;;7.70;7.50;;;;;;;-141.02;100.00;43208.38;5113322;28;20576;-66
2023/12/17 06:38:34;;;;;;;8.40;8.20;;;;;;;-141.02;100.00;43077.84;5113224;28;20286;-67
2023/12/17 06:41:01;;;;;;;10.20;9.90;;;;;;;-141.02;100.00;43095.13;5113212;28;20228;-67
2023/12/17 06:43:29;;;;;;;10.10;9.80;;;;;;;-141.02;100.00;43050.97;5112825;28;20198;-67
2023/12/17 06:45:56;;;;;;;9.03;8.83;;;;;;;-141.02;100.00;43020.25;5113065;28;20195;-67
2023/12/17 06:48:23;;;;;;;9.87;9.57;;;;;;;-141.02;100.00;43039.44;5112775;28;20678;-66
2023/12/17 06:50:50;;;;;;;10.57;10.27;;;;;;;-141.02;100.00;43131.59;5112978;28;20235;-65
2023/12/17 06:53:17;;;;;;;10.70;10.40;;;;;;;-141.02;100.00;43050.97;5113315;28;20200;-66
2023/12/17 06:55:44;;;;;;;10.57;10.27;;;;;;;-141.02;100.00;42882.00;5112657;28;20387;-67
2023/12/17 06:58:12;;;;;;;10.87;10.57;;;;;;;-141.02;100.00;42778.34;5113072;28;20279;-66
2023/12/17 07:00:41;;;;;;;13.03;12.63;;;;;;;-141.02;100.00;42805.22;5112881;28;20234;-66
2023/12/17 07:03:08;;;;;;;13.07;12.67;;;;;;;-141.02;100.00;42787.94;5112592;28;20681;-67
2023/12/17 07:05:35;;;;;;;11.40;11.10;;;;;;;-141.02;100.00;42707.31;5113070;28;20249;-67
2023/12/17 07:08:02;;;;;;;11.27;10.97;;;;;;;-141.02;100.00;42663.16;5112805;28;20197;-66
2023/12/17 07:10:29;;;;;;;10.97;10.67;;;;;;;-141.02;100.00;42763.00;5112737;28;20197;-66
2023/12/17 07:12:56;;;;;;;11.17;10.87;;;;;;;-141.02;100.00;42824.41;5112434;28;20200;-66
2023/12/17 07:15:23;;;;;;;11.20;10.90;;;;;;;-141.02;100.00;42782.19;5112767;28;20193;-67
2023/12/17 07:17:51;;;;;;;12.27;11.87;;;;;;;-141.02;100.00;42743.78;5111732;28;20200;-66
2023/12/17 07:20:18;;;;;;;12.40;12.00;;;;;;;-141.02;100.00;42649.72;5112604;28;20272;-67
2023/12/17 07:22:45;;;;;;;12.70;12.30;;;;;;;-141.02;100.00;42670.84;5112716;28;20275;-66
2023/12/17 07:25:12;;;;;;;13.07;12.67;;;;;;;-141.02;100.00;42820.56;5112203;28;20193;-67
2023/12/17 07:27:39;;;;;;;13.60;13.10;;;;;;;-141.02;100.00;42392.50;5112279;28;20192;-66
2023/12/17 07:30:07;;;;;;;15.60;15.00;;;;;;;-141.02;100.00;42407.84;5112933;28;20204;-67
2023/12/17 07:32:34;;;;;;;15.87;15.27;;;;;;;-141.02;100.00;42432.81;5112547;28;20229;-66
2023/12/17 07:35:03;;;;;;;15.07;14.47;;;;;;;-141.02;100.00;42509.59;5112247;28;20197;-66
2023/12/17 07:37:31;;;;;;;15.17;14.57;;;;;;;-141.02;100.00;42440.50;5112169;28;20197;-67
2023/12/17 07:39:58;;;;;;;15.37;14.77;;;;;;;-141.02;100.00;42440.50;5112484;28;20193;-67
2023/12/17 07:42:25;;;;;;;14.87;14.33;;;;;;;-141.02;100.00;42421.28;5112147;28;20200;-67
2023/12/17 07:44:51;;;;;;;15.50;14.90;;;;;;;-141.02;100.00;42281.19;5112140;28;20193;-67
2023/12/17 07:47:18;;;;;;;15.63;15.03;;;;;;;-141.02;100.00;42256.22;5112122;28;20284;-68
2023/12/17 07:49:45;;;;;;;15.43;14.83;;;;;;;-141.02;100.00;42261.97;5112085;28;20686;-68
2023/12/17 07:52:15;;;;;;;14.90;14.30;;;;;;;-141.02;100.00;42146.81;5112318;28;20235;-67
2023/12/17 07:54:42;;;;;;;14.47;13.97;;;;;;;-141.02;100.00;42121.88;5111970;28;20205;-67
2023/12/17 07:57:09;;;;;;;12.70;12.30;;;;;;;-141.02;100.00;42227.44;5112079;28;20603;-66
2023/12/17 07:59:36;;;;;;;12.50;12.10;;;;;;;-141.02;100.00;42396.34;5112350;28;20201;-69
2023/12/17 08:02:03;;;;;;;12.53;12.03;;;;;;;-141.02;100.00;42517.28;5112001;28;20193;-70
2023/12/17 08:04:30;;;;;;;12.50;12.00;;;;;;;-141.02;100.00;42440.50;5112290;28;20276;-68
2023/12/17 08:06:57;;;;;;;12.90;12.40;;;;;;;-141.02;100.00;42501.91;5111993;28;20193;-70
2023/12/17 08:09:25;;;;;;;12.73;12.23;;;;;;;-141.02;100.00;42643.97;5112236;28;20595;-69
2023/12/17 08:11:52;;;;;;;13.40;12.90;;;;;;;-141.02;100.00;42642.03;5112127;28;20228;-71
2023/12/17 08:14:19;;;;;;;13.60;13.00;;;;;;;-141.02;100.00;42578.69;5112948;28;20197;-70
2023/12/17 08:16:46;;;;;;;14.40;13.70;;;;;;;-141.02;100.00;42534.56;5112152;28;20193;-71
2023/12/17 08:19:13;;;;;;;14.87;14.23;;;;;;;-141.02;100.00;42390.59;5112113;28;20201;-72
2023/12/17 08:21:40;;;;;;;15.20;14.50;;;;;;;-141.02;100.00;42417.47;5112404;28;20196;-72
2023/12/17 08:24:07;;;;;;;16.13;15.33;;;;;;;-141.02;100.00;42302.28;5111761;28;20588;-72
2023/12/17 08:26:35;;;;;;;15.77;15.07;;;;;;;-141.02;100.00;42388.66;5111814;28;20727;-74
2023/12/17 08:29:02;;;;;;;15.80;15.10;;;;;;;-141.02;100.00;42463.53;5114087;28;20197;-72
2023/12/17 08:31:29;;;;;;;15.43;14.73;;;;;;;-141.02;100.00;42609.41;5115322;28;20221;-72
2023/12/17 08:33:56;;;;;;;15.13;14.43;;;;;;;-141.02;100.00;42551.81;5115609;28;20192;-74
2023/12/17 08:36:25;;;;;;;14.80;14.10;;;;;;;-141.02;100.00;42490.41;5115257;28;20189;-74
2023/12/17 08:38:52;;;;;;;15.00;14.30;;;;;;;-141.02;100.00;42567.19;5115570;28;20201;-73
2023/12/17 08:41:19;;;;;;;15.90;15.10;;;;;;;-141.02;100.00;42536.47;5115721;28;20289;-74
2023/12/17 08:43:47;;;;;;;16.20;15.30;;;;;;;-141.02;100.00;42605.56;5115186;28;20663;-74
2023/12/17 08:46:14;;;;;;;16.40;15.50;;;;;;;-141.02;100.00;42363.72;5115146;28;20283;-74
2023/12/17 08:48:41;;;;;;;16.97;16.03;;;;;;;-141.02;100.00;42352.19;5114937;28;20197;-75
2023/12/17 08:51:08;;;;;;;16.10;15.30;;;;;;;-141.02;100.00;42476.97;5114972;28;20283;-75
2023/12/17 08:53:35;;;;;;;15.63;14.73;;;;;;;-141.02;100.00;42352.19;5115263;28;20209;-75
2023/12/17 08:56:03;;;;;;;15.03;14.23;;;;;;;-141.02;100.00;42434.72;5114828;28;20239;-75
2023/12/17 08:58:31;;;;;;;15.03;14.23;;;;;;;-141.02;100.00;42396.34;5115446;28;20197;-75
2023/12/17 09:00:59;;;;;;;14.63;13.83;;;;;;;-141.02;100.00;42279.25;5114807;28;20686;-75
2023/12/17 09:03:26;;;;;;;15.23;14.43;;;;;;;-141.02;100.00;42308.03;5114775;28;20663;-75
2023/12/17 09:05:53;;;;;;;15.43;14.63;;;;;;;-141.02;100.00;42348.34;5115004;28;20193;-74
2023/12/17 09:08:19;;;;;;;15.20;14.40;;;;;;;-141.02;100.00;42386.75;5114695;28;20193;-73
2023/12/17 09:10:46;;;;;;;15.27;14.47;;;;;;;-141.02;100.00;42371.38;5114607;28;20197;-73
2023/12/17 09:13:13;;;;;;;16.00;15.20;;;;;;;-141.02;100.00;42542.22;5114800;28;20276;-73
2023/12/17 09:15:40;;;;;;;15.93;15.13;;;;;;;-141.02;100.00;42594.06;5114577;28;20193;-72
2023/12/17 09:18:08;;;;;;;16.10;15.30;;;;;;;-141.02;100.00;42511.50;5114430;28;20690;-71
2023/12/17 09:20:35;;;;;;;15.50;14.70;;;;;;;-141.02;100.00;42473.13;5114418;28;20660;-71
2023/12/17 09:23:02;;;;;;;16.30;15.40;;;;;;;-141.02;100.00;42452.00;5114595;28;20219;-70
2023/12/17 09:25:29;;;;;;;16.57;15.67;;;;;;;-141.02;100.00;42505.75;5114631;28;20266;-71
2023/12/17 09:27:56;;;;;;;16.80;15.90;;;;;;;-141.02;100.00;42492.31;5114245;28;20197;-70
2023/12/17 09:30:23;;;;;;;16.33;15.43;;;;;;;-141.02;100.00;42505.75;5114388;28;20593;-70
2023/12/17 09:32:51;;;;;;;15.80;15.00;;;;;;;-141.02;100.00;42436.66;5114397;28;20228;-71
2023/12/17 09:35:20;;;;;;;15.67;14.87;;;;;;;-141.02;100.00;42496.16;5114416;28;20195;-70
2023/12/17 09:37:47;;;;;;;15.67;14.87;;;;;;;-141.02;100.00;42425.13;5114081;28;20197;-70
2023/12/17 09:40:15;;;;;;;15.60;14.80;;;;;;;-141.02;100.00;42461.59;5113357;27;20197;-70
2023/12/17 09:42:44;;;;;;;15.63;14.83;;;;;;;-141.02;100.00;42492.31;5114264;28;20250;-70
2023/12/17 09:45:14;;;;;;;14.97;14.17;;;;;;;-141.02;100.00;42617.09;5114263;28;20193;-71
2023/12/17 09:47:42;;;;;;;15.40;14.50;;;;;;;-141.02;100.00;42501.91;5114410;28;20254;-71
2023/12/17 09:50:10;;;;;;;14.30;13.60;;;;;;;-141.02;100.00;42691.97;5114187;28;20292;-72
2023/12/17 09:52:41;;;;;;;14.97;14.17;;;;;;;-141.02;100.00;42670.84;5113893;28;20225;-72
2023/12/17 09:55:10;;;;;;;15.73;14.83;;;;;;;-141.02;100.00;42713.06;5114050;28;20190;-73
2023/12/17 09:57:37;;;;;;;16.07;15.17;;;;;;;-141.02;100.00;42500.00;5113762;28;20239;-73
2023/12/17 10:00:09;;;;;;;15.90;15.10;;;;;;;-141.02;100.00;42751.47;5113694;28;20203;-73
2023/12/17 10:02:37;;;;;;;17.40;16.50;;;;;;;-141.02;100.00;42659.31;5113697;28;20204;-73
2023/12/17 10:05:06;;;;;;;17.10;16.10;;;;;;;-141.02;100.00;42505.75;5113585;28;20200;-73
2023/12/17 10:07:35;;;;;;;17.30;16.30;;;;;;;-141.02;100.00;42465.44;5113948;28;20272;-73
2023/12/17 10:10:04;;;;;;;16.97;16.07;;;;;;;-141.02;100.00;42452.00;5113666;28;20197;-73
2023/12/17 10:12:30;;;;;;;16.97;15.97;;;;;;;-141.02;100.00;42517.28;5113714;28;20233;-72
2023/12/17 10:14:58;;;;;;;17.63;16.57;;;;;;;-141.02;100.00;42271.56;5113378;28;20228;-72
2023/12/17 10:17:24;;;;;;;17.43;16.33;;;;;;;-141.02;100.00;42336.84;5113664;28;20197;-71
2023/12/17 10:19:52;;;;;;;17.03;16.03;;;;;;;-141.02;100.00;42448.16;5113253;28;20197;-71
2023/12/17 10:22:20;;;;;;;17.53;16.43;;;;;;;-141.02;100.00;42298.44;5113577;28;20280;-70
2023/12/17 10:24:47;;;;;;;18.03;16.93;;;;;;;-141.02;100.00;42434.72;5113174;28;20702;-70
2023/12/17 10:27:19;;;;;;;17.47;16.37;;;;;;;-141.02;100.00;42400.19;5113133;28;20192;-69
2023/12/17 10:29:50;;;;;;;16.90;15.90;;;;;;;-141.02;100.00;42279.25;5113212;28;20193;-70
2023/12/17 10:32:22;;;;;;;16.90;15.90;;;;;;;-141.02;100.00;42331.09;5112992;28;20270;-69
2023/12/17 10:34:50;;;;;;;15.63;14.67;;;;;;;-141.02;100.00;42233.19;5113367;28;20181;-69
2023/12/17 10:37:19;;;;;;;14.83;14.03;;;;;;;-141.02;100.00;42423.22;5113126;28;20667;-69
2023/12/17 10:39:49;;;;;;;14.63;13.83;;;;;;;-141.02;100.00;42356.03;5113268;28;20205;-68
2023/12/17 10:42:19;;;;;;;14.50;13.70;;;;;;;-141.02;100.00;42402.09;5112874;28;20204;-68
2023/12/17 10:44:47;;;;;;;14.77;13.97;;;;;;;-141.02;100.00;42375.22;5113244;28;20195;-68
2023/12/17 10:47:16;;;;;;;14.83;14.03;;;;;;;-141.02;100.00;42465.44;5112820;28;20605;-69
2023/12/17 10:49:44;;;;;;;17.20;16.30;;;;;;;-141.02;100.00;42517.28;5113014;28;20197;-70
2023/12/17 10:52:11;;;;;;;17.00;16.20;;;;;;;-141.02;100.00;42691.97;5111781;28;20699;-69
2023/12/17 10:54:38;;;;;;;16.00;15.20;;;;;;;-141.02;100.00;42578.69;5112566;28;20189;-69
2023/12/17 10:57:08;;;;;;;16.40;15.50;;;;;;;-141.02;100.00;42578.69;5112771;28;20231;-69
2023/12/17 10:59:40;;;;;;;16.40;15.50;;;;;;;-141.02;100.00;42619.00;5112904;28;20201;-70